This is the latest recevied weather packets stored in our database for station/object KC3ROS. If no packets are shown the sender has not sent any weather packets the latest 10 day(s).
| Time | Temp. | Humidity | Pressure | Rain* | Wind** | Luminosity | Snow |
|---|---|---|---|---|---|---|---|
| 1777654230 | 10° C | 77% | 1010.6 hPa | 0 mm | - | 199 W/m² | - |
| 1777653927 | 9.44° C | 77% | 1010.6 hPa | 0 mm | - | 226 W/m² | - |
| 1777653624 | 9.44° C | 78% | 1010.7 hPa | 0 mm | - | 147 W/m² | - |
| 1777653320 | 10° C | 79% | 1011.1 hPa | 0 mm | - | 118 W/m² | - |
| 1777653017 | 9.44° C | 79% | 1010.6 hPa | 0 mm | - | 217 W/m² | - |
| 1777652713 | 10° C | 77% | 1011 hPa | 0 mm | - | 220 W/m² | - |
| 1777652410 | 9.44° C | 80% | 1010.7 hPa | 0 mm | - | 272 W/m² | - |
| 1777652108 | 9.44° C | 79% | 1010.7 hPa | 0 mm | - | 215 W/m² | - |
| 1777651804 | 9.44° C | 79% | 1010.9 hPa | 0 mm | - | 119 W/m² | - |
| 1777651501 | 9.44° C | 78% | 1011 hPa | 0 mm | - | 83 W/m² | - |
| 1777651198 | 9.44° C | 79% | 1011.1 hPa | 0 mm | - | 109 W/m² | - |
| 1777650895 | 10° C | 80% | 1011 hPa | 0 mm | - | 108 W/m² | - |
| 1777650591 | 10° C | 78% | 1011 hPa | 0 mm | - | 184 W/m² | - |
| 1777650289 | 9.44° C | 81% | 1011 hPa | 0 mm | - | 223 W/m² | - |
| 1777649986 | 9.44° C | 81% | 1011.4 hPa | 0 mm | - | 167 W/m² | - |
| 1777649683 | 9.44° C | 80% | 1011.5 hPa | 0 mm | - | 107 W/m² | - |
| 1777649378 | 9.44° C | 79% | 1011.4 hPa | 0 mm | - | 85 W/m² | - |
| 1777649077 | 9.44° C | 80% | 1011.4 hPa | 0 mm | - | 118 W/m² | - |
| 1777648774 | 9.44° C | 81% | 1011.4 hPa | 0 mm | - | 163 W/m² | - |
| 1777648471 | 8.89° C | 81% | 1011.4 hPa | 0 mm | - | 239 W/m² | - |
| 1777648167 | 8.89° C | 83% | 1011.5 hPa | 0 mm | - | 210 W/m² | - |
| 1777647862 | 8.89° C | 83% | 1011.4 hPa | 0 mm | - | 161 W/m² | - |
| 1777647559 | 8.89° C | 83% | 1011.5 hPa | 0 mm | - | 100 W/m² | - |
| 1777647256 | 8.89° C | 84% | 1011.3 hPa | 0 mm | - | 76 W/m² | - |
| 1777646954 | 8.89° C | 85% | 1011.3 hPa | 0 mm | - | 115 W/m² | - |
* Rain latest hour (hover to see other rain measurements)
** Current wind speed in m/s (hover to see current wind gust speed)